New Baltimore, MI (48047)

10:18 AM EST on March 06, 2015 (GMT -0500)
Bert's Anchor Bay Wx | Change Station
CLOSE
Current Station
Personal Weather Station
Location: New Baltimore, MI
Elevation: 587 ft
Nearby Weather Stations

Elev 587 ft 42.69 °N, 82.73 °W | Updated 1 second ago

Clear
Clear
14.1 °F
Feels Like 3 °F
N
8.0
Wind Variable Wind from South
Gusts 8.0 mph

Today
High -- | Low -- °F
--% Chance of Precip.
Yesterday
High -- | Low -- °F
Precip. -- in
6:58 AM 6:26 PM
Full, 99% visible
Pressure 30.50 in
Visibility 10.0 miles
Clouds Scattered Clouds 20000 ft
Windchill 3 °F
Dew Point 6 °F
Humidity 71%
Rainfall in
Snow Depth Not available.
UV 2 out of 12
Pollen .50 out of 12
Air Quality Not available.
Flu Activity Not available.
METAR KMTC 061455Z 22012KT 10SM SCT200 M08/M15 A3044 RMK SLP328 T10831153 58003

More Conditions Fewer Conditions

Pressure 30.50 in
Visibility 10.0 miles
Clouds Scattered Clouds 20000 ft
Windchill 3 °F
Dew Point 6 °F
Humidity 71%
Rainfall in
Snow Depth Not available.
UV 2 out of 12
Pollen .50 out of 12
Air Quality Not available.
Flu Activity Not available.
METAR KMTC 061455Z 22012KT 10SM SCT200 M08/M15 A3044 RMK SLP328 T10831153 58003

More Conditions Fewer Conditions

10-Day Weather Forecast

Almanac

Astronomy

Mar. 06, 2015 Rise Set
Actual Time
Civil Twilight
Nautical Twilight
Astronomical Twilight
Moon
Length of Visible Light
Length of Day
Tomorrow will be .
, % of the Moon is Illuminated

Today's Extremes

State Highs State Lows

Community

WunderPhotos

Upload Photos

1,803,300 photos uploaded!

WunderBlogs® & News

Nearby

Air Quality

  Air Quality AQ Index Pollutant
Not available.

Snow Depth

Station Depth Elevation

Earthquake Activity

City Distance Mag. Time & Date
Minimum magnitude displayed is 2.5.

Coastal Water Temperatures

Place Temperature

Nearby Weather Stations